Aviation Digital Data Service (ADDS)

Output produced by METARs form (1442 UTC 19 August 2019)
found at http://aviationweather.gov/metar/data/
 
TAF EHGG 191121Z 1912/2018 24017KT 9999 SCT025 
     PROB30 
     TEMPO 1912/1918 24020G30KT 6000 SHRA SCT030CB 
     BECMG 1917/1920 21008KT 
     BECMG 2006/2009 24010KT 
     TEMPO 2011/2017 6000 SHRA SCT030CB